createdAt,value
2023-05-05T00:00:29.237Z,99861.59
2023-05-05T00:01:00.879Z,99862.41
2023-05-05T00:01:32.322Z,99862.41
2023-05-05T00:02:03.806Z,99862.13
2023-05-05T00:02:35.347Z,99857.78
2023-05-05T00:03:06.903Z,99861.59
2023-05-05T00:03:38.423Z,99859.69
2023-05-05T00:04:09.972Z,99855.06
2023-05-05T00:04:41.430Z,99859.69
2023-05-05T00:05:12.907Z,99856.97
2023-05-05T00:05:44.337Z,99855.88
2023-05-05T00:06:15.798Z,99858.88
2023-05-05T00:06:47.220Z,99856.16
2023-05-05T00:07:18.640Z,99863.50
2023-05-05T00:07:50.014Z,99858.88
2023-05-05T00:08:21.439Z,99859.97
2023-05-05T00:08:52.814Z,99859.69
2023-05-05T00:09:24.264Z,99859.44
2023-05-05T00:09:55.709Z,99856.75
2023-05-05T00:10:27.176Z,99856.44
2023-05-05T00:10:58.633Z,99851.56
2023-05-05T00:11:30.061Z,99857.53
2023-05-05T00:12:01.468Z,99854.53
2023-05-05T00:12:32.903Z,99853.44
2023-05-05T00:13:04.408Z,99860.78
2023-05-05T00:13:35.864Z,99857.25
2023-05-05T00:14:07.268Z,99854.28
2023-05-05T00:14:38.712Z,99858.69
2023-05-05T00:15:10.134Z,99848.59
2023-05-05T00:15:41.579Z,99853.22
2023-05-05T00:16:13.035Z,99853.19
2023-05-05T00:16:44.502Z,99850.22
2023-05-05T00:17:16.027Z,99852.66
2023-05-05T00:17:47.552Z,99858.09
2023-05-05T00:18:19.296Z,99850.75
2023-05-05T00:18:50.747Z,99854.00
2023-05-05T00:19:22.241Z,99857.00
2023-05-05T00:19:53.746Z,99860.25
2023-05-05T00:20:25.255Z,99853.19
2023-05-05T00:20:56.738Z,99855.09
2023-05-05T00:21:28.110Z,99852.97
2023-05-05T00:21:59.482Z,99853.22
2023-05-05T00:22:32.199Z,99848.59
2023-05-05T00:23:03.664Z,99855.38
2023-05-05T00:23:35.341Z,99855.13
2023-05-05T00:24:06.841Z,99853.47
2023-05-05T00:24:38.346Z,99855.41
2023-05-05T00:25:09.870Z,99852.13
2023-05-05T00:25:41.483Z,99854.03
2023-05-05T00:26:12.913Z,99857.31
2023-05-05T00:26:44.390Z,99851.84
2023-05-05T00:27:15.796Z,99846.69
2023-05-05T00:27:47.288Z,99851.56
2023-05-05T00:28:18.888Z,99851.31
2023-05-05T00:28:50.367Z,99856.47
2023-05-05T00:29:21.795Z,99854.56
2023-05-05T00:29:53.209Z,99853.47
2023-05-05T00:30:24.624Z,99848.31
2023-05-05T00:30:56.045Z,99851.28
2023-05-05T00:31:27.545Z,99854.56
2023-05-05T00:31:59.019Z,99848.03
2023-05-05T00:32:30.495Z,99845.84
2023-05-05T00:33:02.102Z,99852.41
2023-05-05T00:33:33.595Z,99848.03
2023-05-05T00:34:05.012Z,99849.41
2023-05-05T00:34:36.420Z,99846.94
2023-05-05T00:35:07.884Z,99845.06
2023-05-05T00:35:39.289Z,99843.69
2023-05-05T00:36:10.722Z,99837.97
2023-05-05T00:36:42.103Z,99844.50
2023-05-05T00:37:13.500Z,99843.41
2023-05-05T00:37:45.035Z,99836.38
2023-05-05T00:38:16.511Z,99842.34
2023-05-05T00:38:48.003Z,99842.34
2023-05-05T00:39:19.564Z,99836.09
2023-05-05T00:39:50.987Z,99836.66
2023-05-05T00:40:22.401Z,99831.47
2023-05-05T00:40:53.821Z,99836.34
2023-05-05T00:41:25.208Z,99835.81
2023-05-05T00:41:56.660Z,99835.03
2023-05-05T00:42:28.074Z,99839.66
2023-05-05T00:42:59.471Z,99840.19
2023-05-05T00:43:33.949Z,99840.25
2023-05-05T00:44:05.326Z,99839.63
2023-05-05T00:44:36.715Z,99837.72
2023-05-05T00:45:08.185Z,99834.44
2023-05-05T00:45:39.596Z,99837.72
2023-05-05T00:46:11.037Z,99840.69
2023-05-05T00:46:42.507Z,99839.06
2023-05-05T00:47:14.002Z,99835.28
2023-05-05T00:47:45.509Z,99835.25
2023-05-05T00:48:17.065Z,99832.28
2023-05-05T00:48:48.572Z,99836.91
2023-05-05T00:49:20.336Z,99832.28
2023-05-05T00:49:51.769Z,99828.22
2023-05-05T00:50:23.174Z,99824.13
2023-05-05T00:50:54.668Z,99831.72
2023-05-05T00:51:26.076Z,99831.72
2023-05-05T00:51:57.558Z,99834.47
2023-05-05T00:52:28.931Z,99834.47
2023-05-05T00:53:00.344Z,99827.66
2023-05-05T00:53:31.733Z,99827.44
2023-05-05T00:54:03.190Z,99835.03
2023-05-05T00:54:34.598Z,99835.03
2023-05-05T00:55:05.993Z,99828.50
2023-05-05T00:55:37.408Z,99834.47
2023-05-05T00:56:08.849Z,99833.13
2023-05-05T00:56:40.276Z,99831.47
2023-05-05T00:57:11.679Z,99840.44
2023-05-05T00:57:43.119Z,99826.03
2023-05-05T00:58:14.500Z,99831.19
2023-05-05T00:58:45.935Z,99833.09
2023-05-05T00:59:17.398Z,99830.38
2023-05-05T00:59:48.865Z,99838.53
2023-05-05T01:00:20.286Z,99830.66
2023-05-05T01:00:51.727Z,99833.91
2023-05-05T01:01:23.210Z,99827.38
2023-05-05T01:01:54.645Z,99832.81
2023-05-05T01:02:26.252Z,99822.78
2023-05-05T01:02:57.826Z,99826.88
2023-05-05T01:03:29.537Z,99826.59
2023-05-05T01:04:01.104Z,99832.03
2023-05-05T01:04:32.738Z,99829.06
2023-05-05T01:05:04.143Z,99833.44
2023-05-05T01:05:35.544Z,99831.53
2023-05-05T01:06:06.996Z,99834.50
2023-05-05T01:06:38.402Z,99831.78
2023-05-05T01:07:09.821Z,99830.41
2023-05-05T01:07:41.242Z,99835.06
2023-05-05T01:08:12.638Z,99831.25
2023-05-05T01:08:44.035Z,99826.09
2023-05-05T01:09:15.480Z,99828.28
2023-05-05T01:09:46.980Z,99835.06
2023-05-05T01:10:20.794Z,99830.19
2023-05-05T01:10:52.373Z,99827.19
2023-05-05T01:11:23.796Z,99820.94
2023-05-05T01:11:55.220Z,99829.69
2023-05-05T01:12:29.169Z,99829.38
2023-05-05T01:13:00.680Z,99822.63
2023-05-05T01:13:32.120Z,99824.56
2023-05-05T01:14:03.555Z,99819.31
2023-05-05T01:14:35.065Z,99824.53
2023-05-05T01:15:06.552Z,99823.72
2023-05-05T01:15:37.999Z,99828.06
2023-05-05T01:16:09.497Z,99816.66
2023-05-05T01:16:41.060Z,99821.00
2023-05-05T01:17:12.535Z,99819.66
2023-05-05T01:17:44.042Z,99821.03
2023-05-05T01:18:15.486Z,99826.47
2023-05-05T01:18:46.901Z,99823.53
2023-05-05T01:19:18.337Z,99819.44
2023-05-05T01:19:49.829Z,99826.81
2023-05-05T01:20:21.403Z,99825.19
2023-05-05T01:20:52.885Z,99824.91
2023-05-05T01:21:24.306Z,99826.53
2023-05-05T01:21:55.772Z,99819.97
2023-05-05T01:22:27.237Z,99825.94
2023-05-05T01:23:01.192Z,99822.97
2023-05-05T01:23:32.654Z,99823.28
2023-05-05T01:24:04.107Z,99826.53
2023-05-05T01:24:35.613Z,99822.41
2023-05-05T01:25:06.988Z,99829.25
2023-05-05T01:25:38.558Z,99825.97
2023-05-05T01:26:09.979Z,99824.91
2023-05-05T01:26:41.410Z,99822.72
2023-05-05T01:27:12.844Z,99823.81
2023-05-05T01:27:44.251Z,99826.56
2023-05-05T01:28:15.638Z,99827.63
2023-05-05T01:28:47.041Z,99822.19
2023-05-05T01:29:18.454Z,99823.81
2023-05-05T01:29:49.889Z,99826.56
2023-05-05T01:30:21.293Z,99823.81
2023-05-05T01:30:52.792Z,99825.47
2023-05-05T01:31:24.334Z,99818.06
2023-05-05T01:31:55.908Z,99818.63
2023-05-05T01:32:27.388Z,99817.53
2023-05-05T01:32:58.854Z,99821.59
2023-05-05T01:33:30.298Z,99823.22
2023-05-05T01:34:04.551Z,99821.31
2023-05-05T01:34:36.015Z,99819.44
2023-05-05T01:35:07.423Z,99823.53
2023-05-05T01:35:38.855Z,99817.25
2023-05-05T01:36:10.387Z,99823.75
2023-05-05T01:36:41.838Z,99818.88
2023-05-05T01:37:13.235Z,99816.69
2023-05-05T01:37:44.629Z,99811.75
2023-05-05T01:38:16.070Z,99818.56
2023-05-05T01:38:47.472Z,99820.44
2023-05-05T01:39:18.897Z,99825.34
2023-05-05T01:39:50.352Z,99820.47
2023-05-05T01:40:21.790Z,99822.03
2023-05-05T01:40:53.292Z,99820.19
2023-05-05T01:41:24.944Z,99821.75
2023-05-05T01:41:56.415Z,99821.00
2023-05-05T01:42:27.821Z,99816.94
2023-05-05T01:42:59.264Z,99813.97
2023-05-05T01:43:30.670Z,99813.41
2023-05-05T01:44:02.113Z,99815.03
2023-05-05T01:44:33.587Z,99814.50
2023-05-05T01:45:04.991Z,99814.47
2023-05-05T01:45:36.478Z,99810.13
2023-05-05T01:46:10.159Z,99816.09
2023-05-05T01:46:41.650Z,99818.56
2023-05-05T01:47:13.049Z,99814.22
2023-05-05T01:47:44.523Z,99821.53
2023-05-05T01:48:15.964Z,99828.06
2023-05-05T01:48:47.325Z,99820.19
2023-05-05T01:49:18.815Z,99817.75
2023-05-05T01:49:50.255Z,99824.28
2023-05-05T01:50:21.796Z,99818.28
2023-05-05T01:50:53.265Z,99810.59
2023-05-05T01:51:24.775Z,99811.78
2023-05-05T01:51:56.172Z,99814.22
2023-05-05T01:52:27.619Z,99819.31
2023-05-05T01:52:59.059Z,99817.47
2023-05-05T01:53:30.439Z,99819.91
2023-05-05T01:54:01.876Z,99818.81
2023-05-05T01:54:33.269Z,99808.75
2023-05-05T01:55:04.676Z,99810.34
2023-05-05T01:55:36.096Z,99816.13
2023-05-05T01:56:07.481Z,99816.09
2023-05-05T01:56:38.952Z,99813.38
2023-05-05T01:57:10.365Z,99814.19
2023-05-05T01:57:41.782Z,99816.94
2023-05-05T01:58:13.224Z,99816.13
2023-05-05T01:58:44.613Z,99817.19
2023-05-05T01:59:16.031Z,99820.47
2023-05-05T01:59:47.418Z,99816.38
2023-05-05T02:00:18.837Z,99823.38
2023-05-05T02:00:50.246Z,99815.78
2023-05-05T02:01:21.711Z,99819.09
2023-05-05T02:01:53.180Z,99824.00
2023-05-05T02:02:24.646Z,99818.47
2023-05-05T02:02:56.219Z,99819.09
2023-05-05T02:03:27.691Z,99822.91
2023-05-05T02:03:59.194Z,99825.88
2023-05-05T02:04:30.636Z,99825.34
2023-05-05T02:05:02.078Z,99819.63
2023-05-05T02:05:33.560Z,99819.38
2023-05-05T02:06:04.938Z,99820.19
2023-05-05T02:06:36.367Z,99820.22
2023-05-05T02:07:07.889Z,99823.19
2023-05-05T02:07:39.310Z,99825.63
2023-05-05T02:08:10.805Z,99831.88
2023-05-05T02:08:42.289Z,99826.72
2023-05-05T02:09:13.789Z,99827.28
2023-05-05T02:09:45.245Z,99827.28
2023-05-05T02:10:16.625Z,99822.66
2023-05-05T02:10:48.045Z,99829.44
2023-05-05T02:11:19.489Z,99832.47
2023-05-05T02:11:50.873Z,99832.19
2023-05-05T02:12:22.359Z,99831.94
2023-05-05T02:12:53.796Z,99831.88
2023-05-05T02:13:25.260Z,99830.56
2023-05-05T02:13:56.823Z,99834.13
2023-05-05T02:14:28.281Z,99832.47
2023-05-05T02:14:59.782Z,99835.47
2023-05-05T02:15:31.267Z,99833.56
2023-05-05T02:16:02.717Z,99833.56
2023-05-05T02:16:34.148Z,99833.56
2023-05-05T02:17:05.587Z,99832.22
2023-05-05T02:17:37.059Z,99831.97
2023-05-05T02:18:08.539Z,99833.00
2023-05-05T02:18:39.957Z,99833.59
2023-05-05T02:19:11.416Z,99832.50
2023-05-05T02:19:42.831Z,99831.69
2023-05-05T02:20:14.268Z,99837.94
2023-05-05T02:20:45.703Z,99834.69
2023-05-05T02:21:17.111Z,99837.69
2023-05-05T02:21:48.494Z,99835.25
2023-05-05T02:22:19.930Z,99833.63
2023-05-05T02:22:51.484Z,99831.44
2023-05-05T02:23:22.897Z,99838.50
2023-05-05T02:23:54.344Z,99841.50
2023-05-05T02:24:27.794Z,99832.50
2023-05-05T02:24:59.186Z,99831.44
2023-05-05T02:25:30.596Z,99839.59
2023-05-05T02:26:01.993Z,99834.19
2023-05-05T02:26:33.402Z,99827.91
2023-05-05T02:27:04.785Z,99835.50
2023-05-05T02:27:36.224Z,99832.53
2023-05-05T02:28:07.712Z,99830.38
2023-05-05T02:28:39.176Z,99833.59
2023-05-05T02:29:10.563Z,99829.81
2023-05-05T02:29:41.983Z,99832.50
2023-05-05T02:30:13.432Z,99835.50
2023-05-05T02:30:44.899Z,99834.16
2023-05-05T02:31:16.319Z,99832.53
2023-05-05T02:31:47.813Z,99835.53
2023-05-05T02:32:19.294Z,99833.63
2023-05-05T02:32:50.772Z,99838.50
2023-05-05T02:33:22.352Z,99836.59
2023-05-05T02:33:53.786Z,99834.94
2023-05-05T02:34:25.231Z,99843.09
2023-05-05T02:34:56.654Z,99837.94
2023-05-05T02:35:28.049Z,99834.97
2023-05-05T02:35:59.488Z,99834.16
2023-05-05T02:36:30.922Z,99840.16
2023-05-05T02:37:02.424Z,99834.97
2023-05-05T02:37:33.860Z,99836.34
2023-05-05T02:38:05.289Z,99837.72
2023-05-05T02:38:36.727Z,99837.19
2023-05-05T02:39:08.167Z,99838.53
2023-05-05T02:39:39.724Z,99844.19
2023-05-05T02:40:11.246Z,99843.66
2023-05-05T02:40:42.773Z,99835.75
2023-05-05T02:41:14.162Z,99840.13
2023-05-05T02:41:45.620Z,99840.41
2023-05-05T02:42:17.012Z,99843.94
2023-05-05T02:42:48.427Z,99835.50
2023-05-05T02:43:19.916Z,99843.66
2023-05-05T02:43:51.587Z,99843.41
2023-05-05T02:44:22.976Z,99841.50
2023-05-05T02:44:54.404Z,99848.84
2023-05-05T02:45:25.821Z,99844.50
2023-05-05T02:45:57.284Z,99843.13
2023-05-05T02:46:28.781Z,99855.63
2023-05-05T02:47:00.257Z,99842.81
2023-05-05T02:47:31.753Z,99856.97
2023-05-05T02:48:03.248Z,99840.13
2023-05-05T02:48:34.725Z,99843.66
2023-05-05T02:49:06.088Z,99843.38
2023-05-05T02:49:37.481Z,99847.41
2023-05-05T02:50:09.169Z,99852.06
2023-05-05T02:50:40.724Z,99849.34
2023-05-05T02:51:12.292Z,99854.22
2023-05-05T02:51:43.730Z,99850.97
2023-05-05T02:52:15.187Z,99850.16
2023-05-05T02:52:46.620Z,99849.84
2023-05-05T02:53:18.099Z,99842.78
2023-05-05T02:53:49.489Z,99851.47
2023-05-05T02:54:20.897Z,99850.41
2023-05-05T02:54:52.393Z,99850.97
2023-05-05T02:55:23.834Z,99849.06
2023-05-05T02:55:55.343Z,99848.25
2023-05-05T02:56:26.778Z,99850.44
2023-05-05T02:56:58.212Z,99848.53
2023-05-05T02:57:29.725Z,99853.66
2023-05-05T02:58:01.171Z,99856.66
2023-05-05T02:58:32.593Z,99856.66
2023-05-05T02:59:03.984Z,99854.78
2023-05-05T02:59:35.389Z,99855.84
2023-05-05T03:00:06.937Z,99855.56
2023-05-05T03:00:38.574Z,99860.72
2023-05-05T03:01:10.064Z,99853.66
2023-05-05T03:01:41.514Z,99861.25
2023-05-05T03:02:13.046Z,99852.84
2023-05-05T03:02:44.633Z,99852.50
2023-05-05T03:03:16.230Z,99856.28
2023-05-05T03:03:47.973Z,99855.75
2023-05-05T03:04:19.500Z,99852.19
2023-05-05T03:04:50.899Z,99853.56
2023-05-05T03:05:22.278Z,99848.38
2023-05-05T03:05:53.761Z,99857.63
2023-05-05T03:06:25.140Z,99850.00
2023-05-05T03:06:56.620Z,99856.53
2023-05-05T03:07:28.062Z,99855.75
2023-05-05T03:07:59.489Z,99858.44
2023-05-05T03:08:31.147Z,99853.03
2023-05-05T03:09:05.644Z,99857.63
2023-05-05T03:09:37.070Z,99855.72
2023-05-05T03:10:08.629Z,99859.50
2023-05-05T03:10:40.223Z,99862.47
2023-05-05T03:11:11.645Z,99855.13
2023-05-05T03:11:43.084Z,99858.09
2023-05-05T03:12:14.515Z,99860.03
2023-05-05T03:12:45.983Z,99867.09
2023-05-05T03:13:17.687Z,99854.00
2023-05-05T03:13:49.058Z,99857.00
2023-05-05T03:14:20.513Z,99860.03
2023-05-05T03:14:51.927Z,99858.91
2023-05-05T03:15:23.350Z,99858.63
2023-05-05T03:15:54.825Z,99857.53
2023-05-05T03:16:26.256Z,99857.81
2023-05-05T03:16:57.649Z,99859.75
2023-05-05T03:17:29.138Z,99863.03
2023-05-05T03:18:00.630Z,99859.50
2023-05-05T03:18:32.223Z,99861.66
2023-05-05T03:19:03.667Z,99855.91
2023-05-05T03:19:35.046Z,99868.19
2023-05-05T03:20:06.626Z,99862.75
2023-05-05T03:20:38.280Z,99862.16
2023-05-05T03:21:09.696Z,99867.34
2023-05-05T03:21:41.111Z,99859.97
2023-05-05T03:22:12.504Z,99861.38
2023-05-05T03:22:43.917Z,99866.81
2023-05-05T03:23:15.290Z,99863.78
2023-05-05T03:23:46.811Z,99872.78
2023-05-05T03:24:18.250Z,99860.50
2023-05-05T03:24:49.635Z,99876.84
2023-05-05T03:25:21.084Z,99874.13
2023-05-05T03:25:52.493Z,99877.91
2023-05-05T03:26:23.994Z,99873.59
2023-05-05T03:26:55.363Z,99874.69
2023-05-05T03:27:26.815Z,99879.03
2023-05-05T03:27:58.181Z,99874.94
2023-05-05T03:28:29.578Z,99881.47
2023-05-05T03:29:01.109Z,99874.66
2023-05-05T03:29:32.518Z,99872.75
2023-05-05T03:30:03.931Z,99873.84
2023-05-05T03:30:35.360Z,99874.09
2023-05-05T03:31:06.793Z,99877.91
2023-05-05T03:31:38.329Z,99878.19
2023-05-05T03:32:09.853Z,99879.56
2023-05-05T03:32:41.363Z,99877.66
2023-05-05T03:33:12.794Z,99878.47
2023-05-05T03:33:46.726Z,99884.97
2023-05-05T03:34:18.220Z,99879.84
2023-05-05T03:34:49.659Z,99881.47
2023-05-05T03:35:21.092Z,99883.06
2023-05-05T03:35:52.503Z,99882.81
2023-05-05T03:36:23.899Z,99885.25
2023-05-05T03:36:55.312Z,99884.19
2023-05-05T03:37:26.744Z,99884.69
2023-05-05T03:37:58.131Z,99882.78
2023-05-05T03:38:29.603Z,99888.78
2023-05-05T03:39:00.998Z,99884.94
2023-05-05T03:39:32.668Z,99879.53
2023-05-05T03:40:07.187Z,99884.69
2023-05-05T03:40:44.313Z,99884.41
2023-05-05T03:41:16.327Z,99890.94
2023-05-05T03:41:47.803Z,99890.66
2023-05-05T03:42:19.260Z,99887.13
2023-05-05T03:42:50.787Z,99885.47
2023-05-05T03:43:22.267Z,99888.72
2023-05-05T03:43:53.739Z,99881.63
2023-05-05T03:44:25.201Z,99883.84
2023-05-05T03:44:56.800Z,99886.31
2023-05-05T03:45:28.382Z,99887.69
2023-05-05T03:45:59.945Z,99883.31
2023-05-05T03:46:31.453Z,99880.38
2023-05-05T03:47:03.198Z,99886.84
2023-05-05T03:47:34.813Z,99888.19
2023-05-05T03:48:06.360Z,99889.28
2023-05-05T03:48:37.800Z,99887.69
2023-05-05T03:49:09.229Z,99885.22
2023-05-05T03:49:40.650Z,99885.75
2023-05-05T03:50:12.150Z,99880.00
2023-05-05T03:50:43.566Z,99883.03
2023-05-05T03:51:14.981Z,99883.25
2023-05-05T03:51:46.453Z,99891.44
2023-05-05T03:52:17.835Z,99884.13
2023-05-05T03:52:49.229Z,99884.66
2023-05-05T03:53:20.623Z,99886.00
2023-05-05T03:53:52.054Z,99893.06
2023-05-05T03:54:23.453Z,99889.25
2023-05-05T03:54:54.888Z,99895.25
2023-05-05T03:55:26.359Z,99888.19
2023-05-05T03:55:57.746Z,99893.63
2023-05-05T03:56:29.169Z,99890.09
2023-05-05T03:57:00.602Z,99895.25
2023-05-05T03:57:32.005Z,99888.97
2023-05-05T03:58:03.479Z,99891.16
2023-05-05T03:58:34.899Z,99889.25
2023-05-05T03:59:06.246Z,99893.34
2023-05-05T03:59:37.697Z,99884.88
2023-05-05T04:00:09.225Z,99895.81
2023-05-05T04:00:40.818Z,99892.00
2023-05-05T04:01:12.264Z,99894.19
2023-05-05T04:01:43.648Z,99894.75
2023-05-05T04:02:17.016Z,99890.91
2023-05-05T04:02:49.996Z,99902.34
2023-05-05T04:03:21.537Z,99890.09
2023-05-05T04:03:53.288Z,99896.09
2023-05-05T04:04:24.770Z,99896.06
2023-05-05T04:04:56.234Z,99893.88
2023-05-05T04:05:27.694Z,99899.34
2023-05-05T04:05:59.218Z,99901.78
2023-05-05T04:06:30.739Z,99888.75
2023-05-05T04:07:02.174Z,99892.00
2023-05-05T04:07:33.567Z,99897.97
2023-05-05T04:08:04.935Z,99884.38
2023-05-05T04:08:36.338Z,99893.91
2023-05-05T04:09:07.929Z,99892.81
2023-05-05T04:09:39.390Z,99890.09
2023-05-05T04:10:10.846Z,99886.28
2023-05-05T04:10:42.267Z,99890.34
2023-05-05T04:11:13.725Z,99896.31
2023-05-05T04:11:45.167Z,99890.34
2023-05-05T04:12:16.609Z,99893.06
2023-05-05T04:12:48.045Z,99892.28
2023-05-05T04:13:19.565Z,99895.53
2023-05-05T04:13:50.964Z,99895.53
2023-05-05T04:14:22.416Z,99888.19
2023-05-05T04:14:53.893Z,99892.00
2023-05-05T04:15:25.331Z,99897.72
2023-05-05T04:15:56.836Z,99889.81
2023-05-05T04:16:28.463Z,99883.25
2023-05-05T04:16:59.953Z,99892.53
2023-05-05T04:17:31.433Z,99888.47
2023-05-05T04:18:02.954Z,99892.81
2023-05-05T04:18:34.365Z,99893.34
2023-05-05T04:19:05.819Z,99894.97
2023-05-05T04:19:37.265Z,99896.31
2023-05-05T04:20:08.811Z,99894.69
2023-05-05T04:20:40.395Z,99894.13
2023-05-05T04:21:11.897Z,99895.22
2023-05-05T04:21:43.348Z,99888.44
2023-05-05T04:22:14.818Z,99884.38
2023-05-05T04:22:46.281Z,99886.56
2023-05-05T04:23:17.682Z,99887.09
2023-05-05T04:23:49.094Z,99887.91
2023-05-05T04:24:20.501Z,99880.53
2023-05-05T04:24:51.961Z,99888.72
2023-05-05T04:25:23.344Z,99881.06
2023-05-05T04:25:54.790Z,99888.16
2023-05-05T04:26:26.216Z,99890.28
2023-05-05T04:26:57.656Z,99890.34
2023-05-05T04:27:29.099Z,99895.78
2023-05-05T04:28:00.531Z,99892.78
2023-05-05T04:28:31.987Z,99896.59
2023-05-05T04:29:03.502Z,99903.38
2023-05-05T04:29:34.925Z,99893.88
2023-05-05T04:30:06.593Z,99895.50
2023-05-05T04:30:38.113Z,99893.34
2023-05-05T04:31:09.579Z,99897.41
2023-05-05T04:31:41.166Z,99900.13
2023-05-05T04:32:12.702Z,99897.44
2023-05-05T04:32:44.226Z,99900.16
2023-05-05T04:33:15.694Z,99896.88
2023-05-05T04:33:47.081Z,99898.22
2023-05-05T04:34:18.496Z,99899.31
2023-05-05T04:34:49.865Z,99897.97
2023-05-05T04:35:21.311Z,99898.50
2023-05-05T04:35:52.716Z,99897.16
2023-05-05T04:36:24.095Z,99890.63
2023-05-05T04:36:55.557Z,99898.78
2023-05-05T04:37:27.016Z,99895.50
2023-05-05T04:37:58.468Z,99894.97
2023-05-05T04:38:29.864Z,99906.09
2023-05-05T04:39:01.332Z,99899.84
2023-05-05T04:39:32.794Z,99899.56
2023-05-05T04:40:04.262Z,99912.06
2023-05-05T04:40:35.669Z,99912.88
2023-05-05T04:41:07.069Z,99900.09
2023-05-05T04:41:38.452Z,99904.19
2023-05-05T04:42:09.907Z,99904.47
2023-05-05T04:42:41.395Z,99911.88
2023-05-05T04:43:12.841Z,99908.56
2023-05-05T04:43:44.266Z,99908.56
2023-05-05T04:44:15.651Z,99911.59
2023-05-05T04:44:47.087Z,99914.06
2023-05-05T04:45:18.470Z,99902.59
2023-05-05T04:45:49.878Z,99913.50
2023-05-05T04:46:21.336Z,99910.78
2023-05-05T04:46:52.806Z,99914.31
2023-05-05T04:47:24.270Z,99917.56
2023-05-05T04:47:55.840Z,99905.56
2023-05-05T04:48:27.340Z,99908.81
2023-05-05T04:48:58.776Z,99902.28
2023-05-05T04:49:30.222Z,99906.09
2023-05-05T04:50:01.618Z,99911.56
2023-05-05T04:50:33.031Z,99910.75
2023-05-05T04:51:04.502Z,99911.03
2023-05-05T04:51:35.903Z,99908.00
2023-05-05T04:52:07.306Z,99909.91
2023-05-05T04:52:38.692Z,99915.38
2023-05-05T04:53:10.107Z,99911.56
2023-05-05T04:53:41.556Z,99905.28
2023-05-05T04:54:12.988Z,99911.03
2023-05-05T04:54:44.428Z,99914.03
2023-05-05T04:55:15.876Z,99913.19
2023-05-05T04:55:47.559Z,99911.56
2023-05-05T04:56:19.093Z,99920.00
2023-05-05T04:56:50.472Z,99919.16
2023-05-05T04:57:21.952Z,99918.13
2023-05-05T04:57:53.302Z,99911.84
2023-05-05T04:58:24.790Z,99918.63
2023-05-05T04:58:56.183Z,99920.25
2023-05-05T04:59:27.604Z,99916.72
2023-05-05T04:59:59.003Z,99912.13
2023-05-05T05:00:30.416Z,99913.47
2023-05-05T05:01:01.954Z,99912.06
2023-05-05T05:01:33.443Z,99918.91
2023-05-05T05:02:08.136Z,99923.25
2023-05-05T05:02:39.643Z,99916.22
2023-05-05T05:03:11.211Z,99916.50
2023-05-05T05:03:42.804Z,99920.56
2023-05-05T05:04:14.284Z,99922.19
2023-05-05T05:04:45.713Z,99925.72
2023-05-05T05:05:17.138Z,99920.28
2023-05-05T05:05:48.568Z,99920.28
2023-05-05T05:06:19.962Z,99921.91
2023-05-05T05:06:51.350Z,99920.81
2023-05-05T05:07:22.772Z,99924.06
2023-05-05T05:07:54.184Z,99916.47
2023-05-05T05:08:25.597Z,99921.63
2023-05-05T05:08:57.025Z,99923.00
2023-05-05T05:09:31.290Z,99926.81
2023-05-05T05:10:02.707Z,99926.81
2023-05-05T05:10:34.108Z,99927.88
2023-05-05T05:11:05.592Z,99927.63
2023-05-05T05:11:37.017Z,99925.16
2023-05-05T05:12:08.393Z,99925.19
2023-05-05T05:12:39.892Z,99932.00
2023-05-05T05:13:12.706Z,99925.97
2023-05-05T05:13:44.557Z,99930.59
2023-05-05T05:14:16.019Z,99933.03
2023-05-05T05:14:47.421Z,99934.72
2023-05-05T05:15:18.818Z,99934.97
2023-05-05T05:15:53.264Z,99932.75
2023-05-05T05:16:24.720Z,99926.22
2023-05-05T05:16:56.107Z,99936.88
2023-05-05T05:17:27.499Z,99931.69
2023-05-05T05:17:58.984Z,99930.31
2023-05-05T05:18:30.385Z,99929.75
2023-05-05T05:19:02.055Z,99936.81
2023-05-05T05:19:33.569Z,99931.41
2023-05-05T05:20:05.165Z,99925.13
2023-05-05T05:20:36.585Z,99933.81
2023-05-05T05:21:08.002Z,99933.31
2023-05-05T05:21:39.493Z,99929.75
2023-05-05T05:22:10.960Z,99929.19
2023-05-05T05:22:42.333Z,99931.41
2023-05-05T05:23:13.800Z,99930.56
2023-05-05T05:23:45.272Z,99930.31
2023-05-05T05:24:16.683Z,99933.88
2023-05-05T05:24:48.206Z,99931.66
2023-05-05T05:25:19.670Z,99931.38
2023-05-05T05:25:51.116Z,99935.19
2023-05-05T05:26:22.531Z,99935.50
2023-05-05T05:26:53.931Z,99933.88
2023-05-05T05:27:25.430Z,99938.22
2023-05-05T05:28:09.003Z,99932.47
2023-05-05T05:28:41.411Z,99932.50
2023-05-05T05:29:12.831Z,99942.03
2023-05-05T05:29:44.366Z,99939.03
2023-05-05T05:30:15.771Z,99943.66
2023-05-05T05:30:47.190Z,99940.38
2023-05-05T05:31:18.643Z,99934.91
2023-05-05T05:31:50.112Z,99940.97
2023-05-05T05:32:21.620Z,99938.44
2023-05-05T05:32:53.131Z,99944.19
2023-05-05T05:33:24.575Z,99940.91
2023-05-05T05:33:55.946Z,99942.84
2023-05-05T05:34:27.363Z,99947.19
2023-05-05T05:34:58.817Z,99938.69
2023-05-05T05:35:30.236Z,99947.97
2023-05-05T05:36:01.610Z,99938.13
2023-05-05T05:36:33.074Z,99946.03
2023-05-05T05:37:04.500Z,99933.50
2023-05-05T05:37:35.973Z,99938.13
2023-05-05T05:38:07.391Z,99940.84
2023-05-05T05:38:38.791Z,99943.28
2023-05-05T05:39:10.203Z,99934.03
2023-05-05T05:39:43.460Z,99935.94
2023-05-05T05:40:15.701Z,99943.59
2023-05-05T05:40:47.163Z,99943.88
2023-05-05T05:41:18.695Z,99939.75
2023-05-05T05:41:50.154Z,99937.84
2023-05-05T05:42:21.724Z,99938.94
2023-05-05T05:42:53.172Z,99942.81
2023-05-05T05:43:24.573Z,99943.06
2023-05-05T05:43:55.988Z,99944.97
2023-05-05T05:44:30.008Z,99941.44
2023-05-05T05:45:01.511Z,99943.59
2023-05-05T05:45:33.087Z,99946.88
2023-05-05T05:46:05.800Z,99940.31
2023-05-05T05:46:38.334Z,99947.94
2023-05-05T05:47:09.807Z,99953.09
2023-05-05T05:47:41.330Z,99945.78
2023-05-05T05:48:12.740Z,99946.06
2023-05-05T05:48:44.158Z,99947.41
2023-05-05T05:49:15.615Z,99941.13
2023-05-05T05:49:47.008Z,99951.47
2023-05-05T05:50:18.456Z,99951.72
2023-05-05T05:50:49.980Z,99950.38
2023-05-05T05:51:21.412Z,99946.25
2023-05-05T05:51:52.807Z,99956.09
2023-05-05T05:52:24.220Z,99952.81
2023-05-05T05:52:55.719Z,99951.50
2023-05-05T05:53:27.155Z,99953.91
2023-05-05T05:53:59.007Z,99955.78
2023-05-05T05:54:30.577Z,99952.25
2023-05-05T05:55:02.067Z,99950.03
2023-05-05T05:55:33.579Z,99951.38
2023-05-05T05:56:05.298Z,99957.66
2023-05-05T05:56:36.715Z,99956.84
2023-05-05T05:57:08.273Z,99958.19
2023-05-05T05:57:39.833Z,99956.25
2023-05-05T05:58:11.463Z,99962.00
2023-05-05T05:58:43.012Z,99959.56
2023-05-05T05:59:14.407Z,99954.69
2023-05-05T05:59:45.823Z,99964.72
2023-05-05T06:00:17.272Z,99966.63
2023-05-05T06:00:48.673Z,99961.47
2023-05-05T06:01:20.285Z,99954.41
2023-05-05T06:01:51.696Z,99962.84
2023-05-05T06:02:23.299Z,99962.03
2023-05-05T06:02:54.989Z,99958.75
2023-05-05T06:03:26.778Z,99966.09
2023-05-05T06:03:58.507Z,99964.19
2023-05-05T06:04:30.087Z,99965.28
2023-05-05T06:05:01.650Z,99963.91
2023-05-05T06:05:33.224Z,99963.09
2023-05-05T06:06:04.686Z,99964.72
2023-05-05T06:06:36.200Z,99964.47
2023-05-05T06:07:07.586Z,99966.91
2023-05-05T06:07:38.986Z,99963.38
2023-05-05T06:08:10.469Z,99965.31
2023-05-05T06:08:41.851Z,99965.84
2023-05-05T06:09:13.234Z,99962.84
2023-05-05T06:09:44.677Z,99967.19
2023-05-05T06:10:27.252Z,99967.47
2023-05-05T06:10:59.924Z,99972.13